ADDS METAR Data

Data at: 0533 UTC 19 Jan 2018

METAR for:KUUU (Newport State Arpt, RI, US)
Text:KUUU 190453Z AUTO 31010G16KT 10SM CLR M04/M09 A2996 RMK AO2 SLP146 T10441089 400111067
Temperature: -4.4°C ( 24°F)
Dewpoint: -8.9°C ( 16°F) [RH = 71%]
Pressure (altimeter):29.96 inches Hg (1014.6 mb) [Sea level pressure: 1014.6 mb]
Winds:from the NW (310 degrees) at 12 MPH (10 knots; 5.1 m/s) gusting to 18 MPH (16 knots; 8.2 m/s)
Visibility:10 or more sm (16+ km)
Ceiling:at least 12,000 feet AGL
Clouds:sky clear below 12,000 feet AGL
QC Flag:automated observation with no human augmentation